Terminal Aerodrome Forecast
Issued by NWS

Home | Current Version | Previous Version | Text Only | Print | Product List | Glossary On
Versions: 1 2 3 4 5 6 7 8 9 10 11 12 13 14
000
FTUS43 KLSX 200520
TAFUIN
TAF
KUIN 200520Z 2006/2106 15008KT P6SM SCT250
     FM201500 19012KT P6SM FEW040 SCT250
     FM210000 18007KT P6SM BKN120=

USA.gov is the U.S. government's official web portal to all federal, state and local government web resources and services.